Airfield :
LOGIN :

Register | Disclaimer

   EN    FR    IT 

 










Legend :    VFR   Marginal VFR   IFR   Intensive IFR   Very Intensive IFR
Visi :
Ceiling :
>= 8 km
>= 3000ft
5 to 8 km
1000 to 3000 ft
1500m to 5 km
500 to 1000 ft
800 to 1500m
200 to 500 ft
< 800m
< 200 ft
Symbols :   Thunderstorms  Fog  Heavy snow  Heavy precipitations  Wind > 20 kt
SIGMETs :     Misc.  Thunderstorms  Icing  Turbulence  Mountain Waves  Volcanic Ashes







- Airport Elevation : 778 ft
- IATA code : BRQ


LKTB - Brno-Turany

CURRENT METAR :
  • 151230Z 07009KT 030V090 9999 FEW030 10/02 Q1029 NOSIG

EXPIRED METARs :
  • 151200Z 07009KT 9999 FEW026 10/02 Q1029 NOSIG
  • 151130Z 08009KT 9999 FEW026 10/03 Q1030 NOSIG
  • 151100Z 09010KT 9999 FEW026 10/04 Q1030 NOSIG
  • 151030Z 07006KT 9999 FEW020 09/04 Q1030 NOSIG
  • 151000Z 08007KT 9999 FEW020 09/04 Q1030 NOSIG
  • 150930Z 08007KT 9999 FEW016 08/05 Q1030 NOSIG

TAF TAF LKTB
Valid from the 15 at 12:00 until the 16 at 18:00 UTC


151100Z 1512/1618 07010KT CAVOK
TEMPO 1512/1517 SCT025
No reported NOTAMs for that airfield.



MET'MAP, your aeronautical weather chart ! - Copyright ORBIFLY December 2007 - Disclaimer

ORBIFLY MET'MAP TEAM :

Programming & Development : Alexandra Zaïnal
Concept & Development : Baudouin d'Aumeries
Co-Development & Prog : Marc-Olivier Méhu
Technical & hardware support : Manuel Goepfert

Contact : metmap@orbifly.com




SOURCES & CREDITS :

   NOAA